Terminal Aerodrome Forecast
Issued by NWS Twin Cities, MN

Home | Current Version | Previous Version | Graphics & Text | Print | Product List | Glossary On
Versions: 1 2 3 4 5 6 7 8 9 10 11 12 13 14 15 16 17 18 19 20 21 22 23 24 25
000
FTUS43 KMPX 302000 AAA
TAFMSP
TAF AMD
KMSP 302050Z 3021/3124 35010KT P6SM SCT030 OVC050
     FM302200 34014G20KT P6SM BKN025 OVC040
     FM310100 34018G26KT P6SM BKN035
     FM310800 33014KT P6SM SKC
     FM311500 35010KT P6SM SKC=

USA.gov is the U.S. government's official web portal to all federal, state and local government web resources and services.